sensor_id;sensor_type;location;lat;lon;timestamp;temperature;humidity
48019;DHT22;33786;48.690;9.562;2022-09-12T00:01:31;10.60;99.90
48019;DHT22;33786;48.690;9.562;2022-09-12T00:03:59;10.50;99.90
48019;DHT22;33786;48.690;9.562;2022-09-12T00:06:27;10.50;99.90
48019;DHT22;33786;48.690;9.562;2022-09-12T00:08:55;10.60;99.90
48019;DHT22;33786;48.690;9.562;2022-09-12T00:11:25;10.50;99.90
48019;DHT22;33786;48.690;9.562;2022-09-12T00:13:58;10.50;99.90
48019;DHT22;33786;48.690;9.562;2022-09-12T00:16:25;10.40;99.90
48019;DHT22;33786;48.690;9.562;2022-09-12T00:18:54;10.40;99.90
48019;DHT22;33786;48.690;9.562;2022-09-12T00:21:21;10.40;99.90
48019;DHT22;33786;48.690;9.562;2022-09-12T00:23:48;10.40;99.90
48019;DHT22;33786;48.690;9.562;2022-09-12T00:26:15;10.40;99.90
48019;DHT22;33786;48.690;9.562;2022-09-12T00:28:43;10.40;99.90
48019;DHT22;33786;48.690;9.562;2022-09-12T00:31:14;10.40;99.90
48019;DHT22;33786;48.690;9.562;2022-09-12T00:33:44;10.30;99.90
48019;DHT22;33786;48.690;9.562;2022-09-12T00:36:16;10.30;99.90
48019;DHT22;33786;48.690;9.562;2022-09-12T00:38:45;10.30;99.90
48019;DHT22;33786;48.690;9.562;2022-09-12T00:41:17;10.30;99.90
48019;DHT22;33786;48.690;9.562;2022-09-12T00:43:52;10.20;99.90
48019;DHT22;33786;48.690;9.562;2022-09-12T00:46:29;10.30;99.90
48019;DHT22;33786;48.690;9.562;2022-09-12T00:49:05;10.20;99.90
48019;DHT22;33786;48.690;9.562;2022-09-12T00:51:33;10.20;99.90
48019;DHT22;33786;48.690;9.562;2022-09-12T00:54:02;10.20;99.90
48019;DHT22;33786;48.690;9.562;2022-09-12T00:56:29;10.20;99.90
48019;DHT22;33786;48.690;9.562;2022-09-12T00:58:59;10.20;99.90
48019;DHT22;33786;48.690;9.562;2022-09-12T01:01:26;10.10;99.90
48019;DHT22;33786;48.690;9.562;2022-09-12T01:04:01;10.20;99.90
48019;DHT22;33786;48.690;9.562;2022-09-12T01:06:29;10.10;99.90
48019;DHT22;33786;48.690;9.562;2022-09-12T01:08:58;10.10;99.90
48019;DHT22;33786;48.690;9.562;2022-09-12T01:11:25;10.10;99.90
48019;DHT22;33786;48.690;9.562;2022-09-12T01:13:51;10.10;99.90
48019;DHT22;33786;48.690;9.562;2022-09-12T01:16:18;10.00;99.90
48019;DHT22;33786;48.690;9.562;2022-09-12T01:29:18;9.90;99.90
48019;DHT22;33786;48.690;9.562;2022-09-12T01:34:24;9.80;99.90
48019;DHT22;33786;48.690;9.562;2022-09-12T01:42:03;9.80;99.90
48019;DHT22;33786;48.690;9.562;2022-09-12T01:44:45;9.80;99.90
48019;DHT22;33786;48.690;9.562;2022-09-12T01:47:16;9.70;99.90
48019;DHT22;33786;48.690;9.562;2022-09-12T01:50:00;9.70;99.90
48019;DHT22;33786;48.690;9.562;2022-09-12T01:55:00;9.60;99.90
48019;DHT22;33786;48.690;9.562;2022-09-12T01:57:46;9.70;99.90
48019;DHT22;33786;48.690;9.562;2022-09-12T02:00:17;9.50;99.90
48019;DHT22;33786;48.690;9.562;2022-09-12T02:02:55;9.60;99.90
48019;DHT22;33786;48.690;9.562;2022-09-12T02:05:33;9.60;99.90
48019;DHT22;33786;48.690;9.562;2022-09-12T02:08:03;9.50;99.90
48019;DHT22;33786;48.690;9.562;2022-09-12T02:10:39;9.50;99.90
48019;DHT22;33786;48.690;9.562;2022-09-12T02:15:51;9.50;99.90
48019;DHT22;33786;48.690;9.562;2022-09-12T02:18:19;9.40;99.90
48019;DHT22;33786;48.690;9.562;2022-09-12T02:20:49;9.50;99.90
48019;DHT22;33786;48.690;9.562;2022-09-12T02:23:19;9.40;99.90
48019;DHT22;33786;48.690;9.562;2022-09-12T02:25:46;9.50;99.90
48019;DHT22;33786;48.690;9.562;2022-09-12T02:28:16;9.50;99.90
48019;DHT22;33786;48.690;9.562;2022-09-12T02:31:31;9.50;99.90
48019;DHT22;33786;48.690;9.562;2022-09-12T02:33:40;9.60;99.90
48019;DHT22;33786;48.690;9.562;2022-09-12T02:38:43;9.50;99.90
48019;DHT22;33786;48.690;9.562;2022-09-12T02:41:11;9.40;99.90
48019;DHT22;33786;48.690;9.562;2022-09-12T02:43:39;9.40;99.90
48019;DHT22;33786;48.690;9.562;2022-09-12T02:46:09;9.40;99.90
48019;DHT22;33786;48.690;9.562;2022-09-12T02:48:43;9.30;99.90
48019;DHT22;33786;48.690;9.562;2022-09-12T02:51:13;9.30;99.90
48019;DHT22;33786;48.690;9.562;2022-09-12T02:53:40;9.30;99.90
48019;DHT22;33786;48.690;9.562;2022-09-12T02:56:08;9.30;99.90
48019;DHT22;33786;48.690;9.562;2022-09-12T02:58:36;9.30;99.90
48019;DHT22;33786;48.690;9.562;2022-09-12T03:03:49;9.30;99.90
48019;DHT22;33786;48.690;9.562;2022-09-12T03:09:19;9.20;99.90
48019;DHT22;33786;48.690;9.562;2022-09-12T03:11:55;9.20;99.90
48019;DHT22;33786;48.690;9.562;2022-09-12T03:16:58;9.10;99.90
48019;DHT22;33786;48.690;9.562;2022-09-12T03:19:28;9.10;99.90
48019;DHT22;33786;48.690;9.562;2022-09-12T03:24:38;9.10;99.90
48019;DHT22;33786;48.690;9.562;2022-09-12T03:27:14;9.00;99.90
48019;DHT22;33786;48.690;9.562;2022-09-12T03:29:42;9.00;99.90
48019;DHT22;33786;48.690;9.562;2022-09-12T03:32:11;9.00;99.90
48019;DHT22;33786;48.690;9.562;2022-09-12T03:34:39;9.00;99.90
48019;DHT22;33786;48.690;9.562;2022-09-12T03:37:06;9.00;99.90
48019;DHT22;33786;48.690;9.562;2022-09-12T03:39:32;8.90;99.90
48019;DHT22;33786;48.690;9.562;2022-09-12T03:41:59;8.90;99.90
48019;DHT22;33786;48.690;9.562;2022-09-12T03:44:26;8.80;99.90
48019;DHT22;33786;48.690;9.562;2022-09-12T03:46:52;8.80;99.90
48019;DHT22;33786;48.690;9.562;2022-09-12T03:49:19;8.80;99.90
48019;DHT22;33786;48.690;9.562;2022-09-12T03:51:46;8.80;99.90
48019;DHT22;33786;48.690;9.562;2022-09-12T03:54:12;8.80;99.90
48019;DHT22;33786;48.690;9.562;2022-09-12T03:56:41;8.80;99.90
48019;DHT22;33786;48.690;9.562;2022-09-12T03:59:11;8.80;99.90
48019;DHT22;33786;48.690;9.562;2022-09-12T04:01:39;8.80;99.90
48019;DHT22;33786;48.690;9.562;2022-09-12T04:04:08;8.70;99.90
48019;DHT22;33786;48.690;9.562;2022-09-12T04:06:35;8.80;99.90
48019;DHT22;33786;48.690;9.562;2022-09-12T04:09:02;8.80;99.90
48019;DHT22;33786;48.690;9.562;2022-09-12T04:11:28;8.80;99.90
48019;DHT22;33786;48.690;9.562;2022-09-12T04:13:58;8.80;99.90
48019;DHT22;33786;48.690;9.562;2022-09-12T04:16:26;8.80;99.90
48019;DHT22;33786;48.690;9.562;2022-09-12T04:18:53;8.70;99.90
48019;DHT22;33786;48.690;9.562;2022-09-12T04:21:19;9.00;99.90
48019;DHT22;33786;48.690;9.562;2022-09-12T04:23:49;8.70;99.90
48019;DHT22;33786;48.690;9.562;2022-09-12T04:26:19;8.70;99.90
48019;DHT22;33786;48.690;9.562;2022-09-12T04:28:45;8.60;99.90
48019;DHT22;33786;48.690;9.562;2022-09-12T04:31:14;8.60;99.90
48019;DHT22;33786;48.690;9.562;2022-09-12T04:33:43;8.70;99.90
48019;DHT22;33786;48.690;9.562;2022-09-12T04:36:11;8.80;99.90
48019;DHT22;33786;48.690;9.562;2022-09-12T04:38:40;9.00;99.90
48019;DHT22;33786;48.690;9.562;2022-09-12T04:41:13;9.00;99.90
48019;DHT22;33786;48.690;9.562;2022-09-12T04:43:42;9.00;99.90
48019;DHT22;33786;48.690;9.562;2022-09-12T04:46:11;9.00;99.90
48019;DHT22;33786;48.690;9.562;2022-09-12T04:48:40;9.10;99.90
48019;DHT22;33786;48.690;9.562;2022-09-12T04:51:11;9.20;99.90
48019;DHT22;33786;48.690;9.562;2022-09-12T04:53:42;9.20;99.90
48019;DHT22;33786;48.690;9.562;2022-09-12T04:56:11;9.20;99.90
48019;DHT22;33786;48.690;9.562;2022-09-12T04:58:40;9.10;99.90
48019;DHT22;33786;48.690;9.562;2022-09-12T05:01:13;9.20;99.90
48019;DHT22;33786;48.690;9.562;2022-09-12T05:03:40;9.30;99.90
48019;DHT22;33786;48.690;9.562;2022-09-12T05:06:11;9.30;99.90
48019;DHT22;33786;48.690;9.562;2022-09-12T05:08:38;9.30;99.90
48019;DHT22;33786;48.690;9.562;2022-09-12T05:11:09;9.40;99.90
48019;DHT22;33786;48.690;9.562;2022-09-12T05:13:50;9.40;99.90
48019;DHT22;33786;48.690;9.562;2022-09-12T05:16:18;9.50;99.90
48019;DHT22;33786;48.690;9.562;2022-09-12T05:18:45;9.70;99.90
48019;DHT22;33786;48.690;9.562;2022-09-12T05:21:16;9.70;99.90
48019;DHT22;33786;48.690;9.562;2022-09-12T05:23:46;9.50;99.90
48019;DHT22;33786;48.690;9.562;2022-09-12T05:26:16;9.70;99.90
48019;DHT22;33786;48.690;9.562;2022-09-12T05:28:43;9.70;99.90
48019;DHT22;33786;48.690;9.562;2022-09-12T05:31:19;9.70;99.90
48019;DHT22;33786;48.690;9.562;2022-09-12T05:33:49;9.80;99.90
48019;DHT22;33786;48.690;9.562;2022-09-12T05:36:24;10.30;99.90
48019;DHT22;33786;48.690;9.562;2022-09-12T05:38:52;10.50;99.90
48019;DHT22;33786;48.690;9.562;2022-09-12T05:41:24;11.20;99.90
48019;DHT22;33786;48.690;9.562;2022-09-12T05:43:55;13.00;99.90
48019;DHT22;33786;48.690;9.562;2022-09-12T05:46:24;15.50;99.90
48019;DHT22;33786;48.690;9.562;2022-09-12T05:48:53;17.60;99.90
48019;DHT22;33786;48.690;9.562;2022-09-12T05:51:25;19.10;96.60
48019;DHT22;33786;48.690;9.562;2022-09-12T05:53:55;20.10;94.10
48019;DHT22;33786;48.690;9.562;2022-09-12T05:56:23;21.30;91.80
48019;DHT22;33786;48.690;9.562;2022-09-12T06:01:49;23.00;86.30
48019;DHT22;33786;48.690;9.562;2022-09-12T06:04:17;24.00;82.40
48019;DHT22;33786;48.690;9.562;2022-09-12T06:06:48;24.40;80.10
48019;DHT22;33786;48.690;9.562;2022-09-12T06:09:15;24.80;78.60
48019;DHT22;33786;48.690;9.562;2022-09-12T06:11:42;25.00;78.60
48019;DHT22;33786;48.690;9.562;2022-09-12T06:14:12;25.40;77.20
48019;DHT22;33786;48.690;9.562;2022-09-12T06:16:39;25.90;75.50
48019;DHT22;33786;48.690;9.562;2022-09-12T06:19:06;25.60;75.80
48019;DHT22;33786;48.690;9.562;2022-09-12T06:21:33;25.80;74.90
48019;DHT22;33786;48.690;9.562;2022-09-12T06:24:04;26.20;74.30
48019;DHT22;33786;48.690;9.562;2022-09-12T06:26:30;26.60;72.60
48019;DHT22;33786;48.690;9.562;2022-09-12T06:29:00;26.70;72.00
48019;DHT22;33786;48.690;9.562;2022-09-12T06:31:28;27.10;72.30
48019;DHT22;33786;48.690;9.562;2022-09-12T06:33:55;27.20;71.80
48019;DHT22;33786;48.690;9.562;2022-09-12T06:36:24;27.20;71.80
48019;DHT22;33786;48.690;9.562;2022-09-12T06:38:58;28.70;69.10
48019;DHT22;33786;48.690;9.562;2022-09-12T06:41:29;29.00;68.40
48019;DHT22;33786;48.690;9.562;2022-09-12T06:43:59;29.10;67.90
48019;DHT22;33786;48.690;9.562;2022-09-12T06:46:26;29.70;66.10
48019;DHT22;33786;48.690;9.562;2022-09-12T06:48:56;30.40;65.00
48019;DHT22;33786;48.690;9.562;2022-09-12T06:51:25;31.20;63.50
48019;DHT22;33786;48.690;9.562;2022-09-12T06:53:53;30.70;64.00
48019;DHT22;33786;48.690;9.562;2022-09-12T06:56:21;29.80;64.80
48019;DHT22;33786;48.690;9.562;2022-09-12T06:58:50;29.40;65.40
48019;DHT22;33786;48.690;9.562;2022-09-12T07:01:18;29.90;64.20
48019;DHT22;33786;48.690;9.562;2022-09-12T07:03:48;29.20;66.10
48019;DHT22;33786;48.690;9.562;2022-09-12T07:06:16;29.00;66.40
48019;DHT22;33786;48.690;9.562;2022-09-12T07:08:43;29.90;65.70
48019;DHT22;33786;48.690;9.562;2022-09-12T07:13:38;31.00;62.60
48019;DHT22;33786;48.690;9.562;2022-09-12T07:16:25;30.70;63.30
48019;DHT22;33786;48.690;9.562;2022-09-12T07:18:56;30.30;63.90
48019;DHT22;33786;48.690;9.562;2022-09-12T07:21:25;31.50;62.00
48019;DHT22;33786;48.690;9.562;2022-09-12T07:23:52;31.90;61.90
48019;DHT22;33786;48.690;9.562;2022-09-12T07:26:26;32.90;60.10
48019;DHT22;33786;48.690;9.562;2022-09-12T07:28:53;33.00;59.60
48019;DHT22;33786;48.690;9.562;2022-09-12T07:31:38;33.00;58.20
48019;DHT22;33786;48.690;9.562;2022-09-12T07:34:07;33.00;58.60
48019;DHT22;33786;48.690;9.562;2022-09-12T07:36:37;33.80;58.00
48019;DHT22;33786;48.690;9.562;2022-09-12T07:39:07;32.90;59.00
48019;DHT22;33786;48.690;9.562;2022-09-12T07:41:33;33.50;57.90
48019;DHT22;33786;48.690;9.562;2022-09-12T07:44:01;33.80;57.20
48019;DHT22;33786;48.690;9.562;2022-09-12T07:46:29;32.10;58.50
48019;DHT22;33786;48.690;9.562;2022-09-12T07:48:59;32.30;59.20
48019;DHT22;33786;48.690;9.562;2022-09-12T07:51:29;32.70;59.10
48019;DHT22;33786;48.690;9.562;2022-09-12T07:53:56;32.70;58.90
48019;DHT22;33786;48.690;9.562;2022-09-12T07:56:25;34.00;57.00
48019;DHT22;33786;48.690;9.562;2022-09-12T07:58:57;34.70;55.30
48019;DHT22;33786;48.690;9.562;2022-09-12T08:01:24;34.50;55.90
48019;DHT22;33786;48.690;9.562;2022-09-12T08:03:52;34.10;56.10
48019;DHT22;33786;48.690;9.562;2022-09-12T08:06:23;33.30;57.00
48019;DHT22;33786;48.690;9.562;2022-09-12T08:08:50;33.50;55.80
48019;DHT22;33786;48.690;9.562;2022-09-12T08:11:18;34.30;56.20
48019;DHT22;33786;48.690;9.562;2022-09-12T08:13:45;34.20;55.70
48019;DHT22;33786;48.690;9.562;2022-09-12T08:16:21;34.10;56.20
48019;DHT22;33786;48.690;9.562;2022-09-12T08:18:50;34.60;55.20
48019;DHT22;33786;48.690;9.562;2022-09-12T08:21:18;35.00;54.90
48019;DHT22;33786;48.690;9.562;2022-09-12T08:23:45;34.90;55.00
48019;DHT22;33786;48.690;9.562;2022-09-12T08:26:15;34.90;54.90
48019;DHT22;33786;48.690;9.562;2022-09-12T08:28:43;35.20;54.70
48019;DHT22;33786;48.690;9.562;2022-09-12T08:31:21;34.90;54.80
48019;DHT22;33786;48.690;9.562;2022-09-12T08:33:48;33.80;55.80
48019;DHT22;33786;48.690;9.562;2022-09-12T08:36:16;32.80;57.00
48019;DHT22;33786;48.690;9.562;2022-09-12T08:38:44;31.90;58.20
48019;DHT22;33786;48.690;9.562;2022-09-12T08:41:13;32.80;57.80
48019;DHT22;33786;48.690;9.562;2022-09-12T08:43:50;33.00;58.30
48019;DHT22;33786;48.690;9.562;2022-09-12T08:46:23;32.30;58.60
48019;DHT22;33786;48.690;9.562;2022-09-12T08:48:54;33.10;57.10
48019;DHT22;33786;48.690;9.562;2022-09-12T08:51:22;34.20;56.00
48019;DHT22;33786;48.690;9.562;2022-09-12T08:53:49;32.80;56.80
48019;DHT22;33786;48.690;9.562;2022-09-12T08:56:17;33.80;55.90
48019;DHT22;33786;48.690;9.562;2022-09-12T08:58:44;33.70;57.20
48019;DHT22;33786;48.690;9.562;2022-09-12T09:13:57;34.90;55.90
48019;DHT22;33786;48.690;9.562;2022-09-12T09:16:44;34.40;56.80
48019;DHT22;33786;48.690;9.562;2022-09-12T09:19:31;32.50;58.20
48019;DHT22;33786;48.690;9.562;2022-09-12T09:22:01;33.60;57.20
48019;DHT22;33786;48.690;9.562;2022-09-12T09:24:40;34.00;56.40
48019;DHT22;33786;48.690;9.562;2022-09-12T09:27:14;33.80;56.60
48019;DHT22;33786;48.690;9.562;2022-09-12T09:30:13;33.50;57.40
48019;DHT22;33786;48.690;9.562;2022-09-12T09:32:41;33.80;56.30
48019;DHT22;33786;48.690;9.562;2022-09-12T09:35:52;33.70;57.80
48019;DHT22;33786;48.690;9.562;2022-09-12T09:43:20;34.20;58.00
48019;DHT22;33786;48.690;9.562;2022-09-12T09:45:51;34.80;54.80
48019;DHT22;33786;48.690;9.562;2022-09-12T09:48:20;34.70;53.80
48019;DHT22;33786;48.690;9.562;2022-09-12T09:50:47;34.70;53.60
48019;DHT22;33786;48.690;9.562;2022-09-12T09:53:37;33.50;54.90
48019;DHT22;33786;48.690;9.562;2022-09-12T09:56:04;32.00;56.70
48019;DHT22;33786;48.690;9.562;2022-09-12T09:58:33;31.80;57.50
48019;DHT22;33786;48.690;9.562;2022-09-12T10:01:00;31.90;56.90
48019;DHT22;33786;48.690;9.562;2022-09-12T10:03:29;32.40;57.90
48019;DHT22;33786;48.690;9.562;2022-09-12T10:06:00;32.90;55.60
48019;DHT22;33786;48.690;9.562;2022-09-12T10:10:55;33.90;54.00
48019;DHT22;33786;48.690;9.562;2022-09-12T10:15:59;31.60;55.50
48019;DHT22;33786;48.690;9.562;2022-09-12T10:18:37;31.90;55.90
48019;DHT22;33786;48.690;9.562;2022-09-12T10:21:49;33.10;56.40
48019;DHT22;33786;48.690;9.562;2022-09-12T10:26:25;33.20;54.40
48019;DHT22;33786;48.690;9.562;2022-09-12T10:28:53;33.20;53.60
48019;DHT22;33786;48.690;9.562;2022-09-12T10:31:34;33.40;55.30
48019;DHT22;33786;48.690;9.562;2022-09-12T10:34:04;33.90;56.20
48019;DHT22;33786;48.690;9.562;2022-09-12T10:36:37;33.90;54.00
48019;DHT22;33786;48.690;9.562;2022-09-12T10:39:05;32.30;55.10
48019;DHT22;33786;48.690;9.562;2022-09-12T10:41:36;32.50;56.20
48019;DHT22;33786;48.690;9.562;2022-09-12T10:44:07;33.10;55.70
48019;DHT22;33786;48.690;9.562;2022-09-12T10:46:35;32.30;55.40
48019;DHT22;33786;48.690;9.562;2022-09-12T10:49:12;31.90;55.80
48019;DHT22;33786;48.690;9.562;2022-09-12T10:51:39;31.90;54.80
48019;DHT22;33786;48.690;9.562;2022-09-12T10:54:07;30.70;57.00
48019;DHT22;33786;48.690;9.562;2022-09-12T10:56:41;31.00;58.40
48019;DHT22;33786;48.690;9.562;2022-09-12T10:59:24;29.70;57.80
48019;DHT22;33786;48.690;9.562;2022-09-12T11:04:59;29.70;61.80
48019;DHT22;33786;48.690;9.562;2022-09-12T11:23:37;27.70;62.80
48019;DHT22;33786;48.690;9.562;2022-09-12T11:30:50;26.70;63.20
48019;DHT22;33786;48.690;9.562;2022-09-12T11:33:39;26.60;64.10
48019;DHT22;33786;48.690;9.562;2022-09-12T11:37:00;26.60;62.60
48019;DHT22;33786;48.690;9.562;2022-09-12T11:39:00;26.30;64.50
48019;DHT22;33786;48.690;9.562;2022-09-12T11:41:31;26.10;64.70
48019;DHT22;33786;48.690;9.562;2022-09-12T11:46:28;26.80;62.60
48019;DHT22;33786;48.690;9.562;2022-09-12T11:54:29;26.80;63.40
48019;DHT22;33786;48.690;9.562;2022-09-12T11:57:10;26.40;63.30
48019;DHT22;33786;48.690;9.562;2022-09-12T12:02:25;25.80;65.20
48019;DHT22;33786;48.690;9.562;2022-09-12T12:05:04;25.60;65.80
48019;DHT22;33786;48.690;9.562;2022-09-12T12:07:51;25.90;65.60
48019;DHT22;33786;48.690;9.562;2022-09-12T12:12:54;26.40;64.30
48019;DHT22;33786;48.690;9.562;2022-09-12T12:15:22;26.30;63.30
48019;DHT22;33786;48.690;9.562;2022-09-12T12:20:46;25.90;63.40
48019;DHT22;33786;48.690;9.562;2022-09-12T12:23:26;25.80;64.00
48019;DHT22;33786;48.690;9.562;2022-09-12T12:25:55;25.70;66.20
48019;DHT22;33786;48.690;9.562;2022-09-12T12:31:04;26.00;64.50
48019;DHT22;33786;48.690;9.562;2022-09-12T12:38:26;25.70;63.20
48019;DHT22;33786;48.690;9.562;2022-09-12T12:40:53;25.60;64.40
48019;DHT22;33786;48.690;9.562;2022-09-12T12:43:40;25.90;63.60
48019;DHT22;33786;48.690;9.562;2022-09-12T12:46:08;26.30;63.90
48019;DHT22;33786;48.690;9.562;2022-09-12T12:48:42;26.50;63.20
48019;DHT22;33786;48.690;9.562;2022-09-12T12:51:14;26.80;61.90
48019;DHT22;33786;48.690;9.562;2022-09-12T12:53:42;27.00;60.90
48019;DHT22;33786;48.690;9.562;2022-09-12T12:58:57;26.50;61.30
48019;DHT22;33786;48.690;9.562;2022-09-12T13:01:24;26.00;63.30
48019;DHT22;33786;48.690;9.562;2022-09-12T13:04:01;25.70;62.80
48019;DHT22;33786;48.690;9.562;2022-09-12T13:06:34;25.20;62.70
48019;DHT22;33786;48.690;9.562;2022-09-12T13:09:05;25.10;63.70
48019;DHT22;33786;48.690;9.562;2022-09-12T13:11:37;25.40;63.90
48019;DHT22;33786;48.690;9.562;2022-09-12T13:14:06;25.60;63.50
48019;DHT22;33786;48.690;9.562;2022-09-12T13:16:38;25.80;63.70
48019;DHT22;33786;48.690;9.562;2022-09-12T13:19:07;25.80;62.90
48019;DHT22;33786;48.690;9.562;2022-09-12T13:21:56;25.80;62.60
48019;DHT22;33786;48.690;9.562;2022-09-12T13:24:22;25.90;64.30
48019;DHT22;33786;48.690;9.562;2022-09-12T13:26:49;25.90;63.90
48019;DHT22;33786;48.690;9.562;2022-09-12T13:29:17;26.20;63.20
48019;DHT22;33786;48.690;9.562;2022-09-12T13:31:45;26.20;62.30
48019;DHT22;33786;48.690;9.562;2022-09-12T13:34:16;26.10;63.10
48019;DHT22;33786;48.690;9.562;2022-09-12T13:41:52;25.40;63.30
48019;DHT22;33786;48.690;9.562;2022-09-12T13:44:22;25.60;63.50
48019;DHT22;33786;48.690;9.562;2022-09-12T13:46:50;25.60;63.70
48019;DHT22;33786;48.690;9.562;2022-09-12T13:51:44;25.40;64.60
48019;DHT22;33786;48.690;9.562;2022-09-12T13:54:14;25.40;62.90
48019;DHT22;33786;48.690;9.562;2022-09-12T13:56:48;25.20;62.90
48019;DHT22;33786;48.690;9.562;2022-09-12T13:59:14;25.20;63.30
48019;DHT22;33786;48.690;9.562;2022-09-12T14:01:42;25.20;64.10
48019;DHT22;33786;48.690;9.562;2022-09-12T14:04:20;25.20;63.60
48019;DHT22;33786;48.690;9.562;2022-09-12T14:07:21;25.40;64.50
48019;DHT22;33786;48.690;9.562;2022-09-12T14:09:52;25.50;62.80
48019;DHT22;33786;48.690;9.562;2022-09-12T14:12:38;25.40;62.60
48019;DHT22;33786;48.690;9.562;2022-09-12T14:15:19;25.30;63.60
48019;DHT22;33786;48.690;9.562;2022-09-12T14:17:49;25.20;63.00
48019;DHT22;33786;48.690;9.562;2022-09-12T14:20:20;25.20;62.20
48019;DHT22;33786;48.690;9.562;2022-09-12T14:22:51;25.30;62.50
48019;DHT22;33786;48.690;9.562;2022-09-12T14:25:19;25.30;62.40
48019;DHT22;33786;48.690;9.562;2022-09-12T14:27:54;25.50;62.90
48019;DHT22;33786;48.690;9.562;2022-09-12T14:33:03;25.50;61.60
48019;DHT22;33786;48.690;9.562;2022-09-12T14:35:31;25.60;61.70
48019;DHT22;33786;48.690;9.562;2022-09-12T14:38:04;25.60;61.30
48019;DHT22;33786;48.690;9.562;2022-09-12T14:40:31;25.40;62.40
48019;DHT22;33786;48.690;9.562;2022-09-12T14:43:13;25.50;62.10
48019;DHT22;33786;48.690;9.562;2022-09-12T14:45:41;25.60;62.10
48019;DHT22;33786;48.690;9.562;2022-09-12T14:48:12;25.60;62.20
48019;DHT22;33786;48.690;9.562;2022-09-12T14:50:42;25.40;63.00
48019;DHT22;33786;48.690;9.562;2022-09-12T14:55:45;25.40;63.90
48019;DHT22;33786;48.690;9.562;2022-09-12T14:58:21;25.30;63.20
48019;DHT22;33786;48.690;9.562;2022-09-12T15:00:55;25.00;62.90
48019;DHT22;33786;48.690;9.562;2022-09-12T15:03:26;25.00;63.50
48019;DHT22;33786;48.690;9.562;2022-09-12T15:05:53;25.20;63.10
48019;DHT22;33786;48.690;9.562;2022-09-12T15:08:20;25.20;63.00
48019;DHT22;33786;48.690;9.562;2022-09-12T15:10:47;25.20;63.80
48019;DHT22;33786;48.690;9.562;2022-09-12T15:13:15;25.10;63.60
48019;DHT22;33786;48.690;9.562;2022-09-12T15:15:43;25.00;62.90
48019;DHT22;33786;48.690;9.562;2022-09-12T15:18:10;24.90;63.90
48019;DHT22;33786;48.690;9.562;2022-09-12T15:20:38;24.90;63.30
48019;DHT22;33786;48.690;9.562;2022-09-12T15:23:05;24.90;63.00
48019;DHT22;33786;48.690;9.562;2022-09-12T15:25:33;25.00;63.30
48019;DHT22;33786;48.690;9.562;2022-09-12T15:27:59;24.90;63.60
48019;DHT22;33786;48.690;9.562;2022-09-12T15:30:27;24.90;63.80
48019;DHT22;33786;48.690;9.562;2022-09-12T15:32:54;24.90;63.20
48019;DHT22;33786;48.690;9.562;2022-09-12T15:35:21;24.80;64.30
48019;DHT22;33786;48.690;9.562;2022-09-12T15:37:48;24.70;65.50
48019;DHT22;33786;48.690;9.562;2022-09-12T15:40:15;24.60;64.60
48019;DHT22;33786;48.690;9.562;2022-09-12T15:42:42;24.60;64.30
48019;DHT22;33786;48.690;9.562;2022-09-12T15:45:22;24.50;64.50
48019;DHT22;33786;48.690;9.562;2022-09-12T15:47:51;24.60;65.10
48019;DHT22;33786;48.690;9.562;2022-09-12T15:50:18;24.60;64.50
48019;DHT22;33786;48.690;9.562;2022-09-12T15:52:44;24.50;65.20
48019;DHT22;33786;48.690;9.562;2022-09-12T15:55:22;24.50;64.40
48019;DHT22;33786;48.690;9.562;2022-09-12T15:57:49;24.50;64.90
48019;DHT22;33786;48.690;9.562;2022-09-12T16:00:16;24.50;64.40
48019;DHT22;33786;48.690;9.562;2022-09-12T16:02:43;24.50;63.70
48019;DHT22;33786;48.690;9.562;2022-09-12T16:05:14;24.40;64.10
48019;DHT22;33786;48.690;9.562;2022-09-12T16:07:42;24.30;64.90
48019;DHT22;33786;48.690;9.562;2022-09-12T16:10:13;24.30;64.70
48019;DHT22;33786;48.690;9.562;2022-09-12T16:12:40;24.30;64.60
48019;DHT22;33786;48.690;9.562;2022-09-12T16:15:10;24.30;65.40
48019;DHT22;33786;48.690;9.562;2022-09-12T16:17:37;24.30;65.50
48019;DHT22;33786;48.690;9.562;2022-09-12T16:20:03;24.20;65.70
48019;DHT22;33786;48.690;9.562;2022-09-12T16:22:30;24.10;66.00
48019;DHT22;33786;48.690;9.562;2022-09-12T16:24:57;24.00;65.50
48019;DHT22;33786;48.690;9.562;2022-09-12T16:27:24;24.00;66.40
48019;DHT22;33786;48.690;9.562;2022-09-12T16:29:50;23.90;64.80
48019;DHT22;33786;48.690;9.562;2022-09-12T16:32:17;23.80;65.50
48019;DHT22;33786;48.690;9.562;2022-09-12T16:34:44;23.80;65.80
48019;DHT22;33786;48.690;9.562;2022-09-12T16:37:11;23.70;66.70
48019;DHT22;33786;48.690;9.562;2022-09-12T16:39:37;23.70;66.90
48019;DHT22;33786;48.690;9.562;2022-09-12T16:42:04;23.60;66.80
48019;DHT22;33786;48.690;9.562;2022-09-12T16:44:31;23.50;66.80
48019;DHT22;33786;48.690;9.562;2022-09-12T16:46:57;23.50;67.30
48019;DHT22;33786;48.690;9.562;2022-09-12T16:49:24;23.50;68.60
48019;DHT22;33786;48.690;9.562;2022-09-12T16:51:51;23.40;69.20
48019;DHT22;33786;48.690;9.562;2022-09-12T16:54:17;23.30;69.40
48019;DHT22;33786;48.690;9.562;2022-09-12T16:56:44;23.20;70.00
48019;DHT22;33786;48.690;9.562;2022-09-12T16:59:12;23.10;69.90
48019;DHT22;33786;48.690;9.562;2022-09-12T17:01:41;23.00;70.20
48019;DHT22;33786;48.690;9.562;2022-09-12T17:04:08;22.90;70.60
48019;DHT22;33786;48.690;9.562;2022-09-12T17:06:35;22.80;70.80
48019;DHT22;33786;48.690;9.562;2022-09-12T17:09:02;22.70;72.00
48019;DHT22;33786;48.690;9.562;2022-09-12T17:11:31;22.70;74.50
48019;DHT22;33786;48.690;9.562;2022-09-12T17:13:59;22.60;75.00
48019;DHT22;33786;48.690;9.562;2022-09-12T17:16:35;22.40;72.30
48019;DHT22;33786;48.690;9.562;2022-09-12T17:19:02;22.30;74.70
48019;DHT22;33786;48.690;9.562;2022-09-12T17:21:29;22.10;76.20
48019;DHT22;33786;48.690;9.562;2022-09-12T17:23:56;22.00;76.00
48019;DHT22;33786;48.690;9.562;2022-09-12T17:26:22;21.70;75.80
48019;DHT22;33786;48.690;9.562;2022-09-12T17:28:49;21.50;76.90
48019;DHT22;33786;48.690;9.562;2022-09-12T17:31:16;21.40;80.80
48019;DHT22;33786;48.690;9.562;2022-09-12T17:33:42;21.30;81.10
48019;DHT22;33786;48.690;9.562;2022-09-12T17:36:13;21.10;82.10
48019;DHT22;33786;48.690;9.562;2022-09-12T17:38:41;20.90;84.60
48019;DHT22;33786;48.690;9.562;2022-09-12T17:41:09;20.60;85.80
48019;DHT22;33786;48.690;9.562;2022-09-12T17:43:36;20.20;88.00
48019;DHT22;33786;48.690;9.562;2022-09-12T17:46:03;19.90;89.40
48019;DHT22;33786;48.690;9.562;2022-09-12T17:48:30;19.60;90.00
48019;DHT22;33786;48.690;9.562;2022-09-12T17:50:57;19.40;91.20
48019;DHT22;33786;48.690;9.562;2022-09-12T17:53:24;19.10;92.00
48019;DHT22;33786;48.690;9.562;2022-09-12T17:55:51;18.90;92.50
48019;DHT22;33786;48.690;9.562;2022-09-12T17:58:19;18.70;93.20
48019;DHT22;33786;48.690;9.562;2022-09-12T18:00:46;18.40;94.00
48019;DHT22;33786;48.690;9.562;2022-09-12T18:03:31;18.30;94.90
48019;DHT22;33786;48.690;9.562;2022-09-12T18:06:00;18.10;95.70